createdAt,value
2023-05-29T00:00:10.513Z,25.78
2023-05-29T00:01:10.484Z,25.80
2023-05-29T00:02:10.499Z,25.80
2023-05-29T00:03:10.663Z,25.79
2023-05-29T00:04:10.557Z,25.76
2023-05-29T00:05:10.517Z,25.78
2023-05-29T00:06:10.526Z,25.76
2023-05-29T00:07:10.530Z,25.78
2023-05-29T00:08:10.543Z,25.79
2023-05-29T00:09:10.589Z,25.79
2023-05-29T00:10:10.564Z,25.78
2023-05-29T00:11:10.577Z,25.79
2023-05-29T00:12:10.589Z,25.79
2023-05-29T00:13:10.674Z,25.78
2023-05-29T00:14:10.596Z,25.78
2023-05-29T00:15:10.605Z,25.78
2023-05-29T00:16:10.659Z,25.78
2023-05-29T00:17:10.613Z,25.76
2023-05-29T00:18:10.699Z,25.78
2023-05-29T00:19:10.645Z,25.76
2023-05-29T00:20:10.746Z,25.78
2023-05-29T00:21:10.667Z,25.76
2023-05-29T00:22:10.668Z,25.78
2023-05-29T00:23:10.681Z,25.76
2023-05-29T00:24:10.684Z,25.75
2023-05-29T00:25:10.696Z,25.76
2023-05-29T00:26:10.733Z,25.78
2023-05-29T00:27:10.723Z,25.76
2023-05-29T00:28:10.727Z,25.76
2023-05-29T00:29:10.729Z,25.76
2023-05-29T00:30:10.760Z,25.76
2023-05-29T00:31:10.806Z,25.76
2023-05-29T00:32:10.841Z,25.78
2023-05-29T00:33:10.809Z,25.79
2023-05-29T00:34:10.780Z,25.78
2023-05-29T00:35:10.779Z,25.76
2023-05-29T00:36:10.804Z,25.75
2023-05-29T00:37:10.826Z,25.75
2023-05-29T00:38:10.796Z,25.78
2023-05-29T00:39:10.830Z,25.76
2023-05-29T00:40:10.822Z,25.75
2023-05-29T00:41:10.824Z,25.76
2023-05-29T00:42:10.900Z,25.75
2023-05-29T00:43:10.855Z,25.73
2023-05-29T00:44:10.852Z,25.73
2023-05-29T00:45:10.865Z,25.75
2023-05-29T00:46:10.880Z,25.75
2023-05-29T00:47:10.925Z,25.75
2023-05-29T00:48:10.959Z,25.75
2023-05-29T00:49:10.894Z,25.76
2023-05-29T00:50:10.907Z,25.73
2023-05-29T00:51:11.942Z,25.75
2023-05-29T00:52:10.932Z,25.73
2023-05-29T00:53:10.946Z,25.76
2023-05-29T00:54:10.963Z,25.79
2023-05-29T00:55:10.964Z,25.75
2023-05-29T00:56:10.980Z,25.73
2023-05-29T00:57:11.074Z,25.75
2023-05-29T00:58:11.000Z,25.76
2023-05-29T00:59:11.011Z,25.73
2023-05-29T01:00:11.027Z,25.75
2023-05-29T01:01:11.062Z,25.75
2023-05-29T01:02:11.107Z,25.75
2023-05-29T01:03:11.079Z,25.73
2023-05-29T01:04:11.056Z,25.76
2023-05-29T01:05:11.066Z,25.75
2023-05-29T01:06:11.080Z,25.75
2023-05-29T01:07:11.092Z,25.75
2023-05-29T01:08:11.100Z,25.76
2023-05-29T01:09:11.103Z,25.76
2023-05-29T01:10:11.110Z,25.75
2023-05-29T01:11:11.123Z,25.78
2023-05-29T01:12:11.153Z,25.75
2023-05-29T01:13:11.145Z,25.73
2023-05-29T01:14:11.164Z,25.75
2023-05-29T01:15:11.203Z,25.76
2023-05-29T01:16:11.210Z,25.75
2023-05-29T01:17:11.179Z,25.72
2023-05-29T01:18:11.196Z,25.75
2023-05-29T01:19:11.191Z,25.73
2023-05-29T01:20:11.297Z,25.72
2023-05-29T01:21:11.226Z,25.76
2023-05-29T01:22:11.234Z,25.73
2023-05-29T01:23:11.246Z,25.76
2023-05-29T01:24:11.245Z,25.73
2023-05-29T01:25:11.257Z,25.75
2023-05-29T01:26:11.271Z,25.73
2023-05-29T01:27:11.307Z,25.75
2023-05-29T01:28:11.298Z,25.72
2023-05-29T01:29:11.298Z,25.75
2023-05-29T01:30:11.309Z,25.72
2023-05-29T01:31:11.338Z,25.73
2023-05-29T01:32:11.324Z,25.75
2023-05-29T01:33:11.346Z,25.76
2023-05-29T01:34:11.346Z,25.73
2023-05-29T01:35:11.355Z,25.75
2023-05-29T01:36:11.364Z,25.73
2023-05-29T01:37:11.373Z,25.72
2023-05-29T01:38:11.390Z,25.73
2023-05-29T01:39:11.399Z,25.73
2023-05-29T01:40:11.416Z,25.72
2023-05-29T01:41:11.418Z,25.73
2023-05-29T01:42:11.420Z,25.73
2023-05-29T01:43:11.432Z,25.72
2023-05-29T01:44:11.460Z,25.72
2023-05-29T01:45:11.471Z,25.73
2023-05-29T01:46:11.503Z,25.72
2023-05-29T01:47:11.496Z,25.72
2023-05-29T01:48:11.470Z,25.73
2023-05-29T01:49:11.478Z,25.72
2023-05-29T01:50:11.489Z,25.72
2023-05-29T01:51:11.485Z,25.71
2023-05-29T01:52:11.502Z,25.73
2023-05-29T01:53:11.512Z,25.72
2023-05-29T01:54:11.538Z,25.73
2023-05-29T01:55:11.520Z,25.73
2023-05-29T01:56:11.533Z,25.71
2023-05-29T01:57:11.540Z,25.71
2023-05-29T01:58:11.568Z,25.71
2023-05-29T01:59:11.563Z,25.71
2023-05-29T02:00:11.590Z,25.73
2023-05-29T02:01:11.750Z,25.72
2023-05-29T02:02:11.587Z,25.72
2023-05-29T02:03:14.057Z,25.71
2023-05-29T02:04:11.644Z,25.72
2023-05-29T02:05:11.689Z,25.72
2023-05-29T02:06:11.585Z,25.71
2023-05-29T02:07:11.577Z,25.72
2023-05-29T02:08:11.574Z,25.72
2023-05-29T02:09:11.567Z,25.71
2023-05-29T02:10:11.563Z,25.71
2023-05-29T02:11:11.568Z,25.72
2023-05-29T02:12:11.563Z,25.69
2023-05-29T02:13:11.556Z,25.71
2023-05-29T02:14:11.563Z,25.71
2023-05-29T02:15:11.543Z,25.71
2023-05-29T02:16:11.598Z,25.71
2023-05-29T02:17:11.535Z,25.71
2023-05-29T02:18:11.540Z,25.71
2023-05-29T02:19:11.539Z,25.72
2023-05-29T02:20:11.544Z,25.69
2023-05-29T02:21:11.498Z,25.69
2023-05-29T02:22:11.485Z,25.69
2023-05-29T02:23:11.496Z,25.72
2023-05-29T02:24:11.475Z,25.69
2023-05-29T02:25:11.465Z,25.69
2023-05-29T02:26:11.460Z,25.69
2023-05-29T02:27:11.431Z,25.71
2023-05-29T02:28:11.433Z,25.68
2023-05-29T02:29:11.406Z,25.68
2023-05-29T02:30:11.397Z,25.71
2023-05-29T02:31:11.401Z,25.66
2023-05-29T02:32:11.432Z,25.69
2023-05-29T02:33:11.457Z,25.69
2023-05-29T02:34:11.350Z,25.66
2023-05-29T02:35:11.351Z,25.68
2023-05-29T02:36:11.333Z,25.71
2023-05-29T02:37:11.344Z,25.69
2023-05-29T02:38:11.327Z,25.69
2023-05-29T02:39:11.307Z,25.69
2023-05-29T02:40:11.297Z,25.66
2023-05-29T02:41:11.288Z,25.69
2023-05-29T02:42:11.284Z,25.68
2023-05-29T02:43:11.279Z,25.68
2023-05-29T02:44:11.282Z,25.68
2023-05-29T02:45:11.279Z,25.69
2023-05-29T02:46:11.339Z,25.68
2023-05-29T02:47:11.273Z,25.69
2023-05-29T02:48:11.307Z,25.68
2023-05-29T02:49:11.247Z,25.66
2023-05-29T02:50:11.238Z,25.66
2023-05-29T02:51:11.228Z,25.68
2023-05-29T02:52:11.210Z,25.66
2023-05-29T02:53:11.207Z,25.68
2023-05-29T02:54:11.189Z,25.68
2023-05-29T02:55:11.171Z,25.68
2023-05-29T02:56:11.182Z,25.69
2023-05-29T02:57:12.440Z,25.68
2023-05-29T02:58:11.158Z,25.66
2023-05-29T02:59:11.147Z,25.66
2023-05-29T03:00:11.151Z,25.66
2023-05-29T03:01:11.194Z,25.68
2023-05-29T03:02:11.142Z,25.66
2023-05-29T03:03:11.228Z,25.69
2023-05-29T03:04:11.141Z,25.68
2023-05-29T03:05:11.282Z,25.66
2023-05-29T03:06:11.128Z,25.66
2023-05-29T03:07:11.131Z,25.66
2023-05-29T03:08:11.117Z,25.66
2023-05-29T03:09:11.117Z,25.66
2023-05-29T03:10:11.126Z,25.69
2023-05-29T03:11:11.103Z,25.65
2023-05-29T03:12:11.110Z,25.66
2023-05-29T03:13:11.129Z,25.66
2023-05-29T03:14:11.124Z,25.66
2023-05-29T03:15:11.112Z,25.69
2023-05-29T03:16:11.143Z,25.66
2023-05-29T03:17:11.085Z,25.66
2023-05-29T03:18:11.139Z,25.66
2023-05-29T03:19:11.088Z,25.64
2023-05-29T03:20:11.090Z,25.66
2023-05-29T03:21:11.069Z,25.65
2023-05-29T03:22:11.082Z,25.65
2023-05-29T03:23:11.065Z,25.66
2023-05-29T03:24:11.091Z,25.65
2023-05-29T03:25:11.072Z,25.66
2023-05-29T03:26:11.073Z,25.65
2023-05-29T03:27:11.085Z,25.66
2023-05-29T03:28:11.080Z,25.64
2023-05-29T03:29:11.075Z,25.68
2023-05-29T03:30:11.078Z,25.65
2023-05-29T03:31:11.090Z,25.65
2023-05-29T03:32:11.063Z,25.66
2023-05-29T03:33:11.072Z,25.65
2023-05-29T03:34:11.064Z,25.65
2023-05-29T03:35:11.066Z,25.65
2023-05-29T03:36:11.050Z,25.62
2023-05-29T03:37:11.226Z,25.65
2023-05-29T03:38:11.068Z,25.64
2023-05-29T03:39:11.059Z,25.64
2023-05-29T03:40:11.051Z,25.65
2023-05-29T03:41:11.053Z,25.65
2023-05-29T03:42:11.053Z,25.64
2023-05-29T03:43:11.029Z,25.65
2023-05-29T03:44:11.040Z,25.64
2023-05-29T03:45:11.041Z,25.65
2023-05-29T03:46:11.034Z,25.64
2023-05-29T03:47:11.140Z,25.66
2023-05-29T03:48:11.049Z,25.66
2023-05-29T03:49:11.038Z,25.65
2023-05-29T03:50:11.062Z,25.62
2023-05-29T03:51:11.022Z,25.64
2023-05-29T03:52:11.031Z,25.65
2023-05-29T03:53:11.016Z,25.65
2023-05-29T03:54:11.021Z,25.65
2023-05-29T03:55:11.021Z,25.64
2023-05-29T03:56:11.073Z,25.64
2023-05-29T03:57:10.994Z,25.65
2023-05-29T03:58:10.984Z,25.62
2023-05-29T03:59:10.965Z,25.65
2023-05-29T04:00:10.958Z,25.64
2023-05-29T04:01:10.961Z,25.61
2023-05-29T04:02:13.800Z,25.64
2023-05-29T04:03:11.119Z,25.62
2023-05-29T04:04:11.035Z,25.64
2023-05-29T04:05:10.971Z,25.62
2023-05-29T04:06:10.964Z,25.65
2023-05-29T04:07:10.962Z,25.64
2023-05-29T04:08:16.031Z,25.64
2023-05-29T04:09:11.959Z,25.65
2023-05-29T04:10:10.957Z,25.64
2023-05-29T04:11:10.946Z,25.64
2023-05-29T04:12:10.956Z,25.61
2023-05-29T04:13:10.981Z,25.64
2023-05-29T04:14:10.977Z,25.64
2023-05-29T04:15:10.949Z,25.61
2023-05-29T04:16:10.956Z,25.61
2023-05-29T04:17:11.047Z,25.62
2023-05-29T04:18:11.050Z,25.62
2023-05-29T04:19:10.945Z,25.64
2023-05-29T04:20:11.022Z,25.62
2023-05-29T04:21:10.960Z,25.61
2023-05-29T04:22:10.961Z,25.62
2023-05-29T04:23:11.017Z,25.62
2023-05-29T04:24:10.982Z,25.64
2023-05-29T04:25:10.983Z,25.64
2023-05-29T04:26:10.980Z,25.65
2023-05-29T04:27:10.980Z,25.64
2023-05-29T04:28:10.994Z,25.61
2023-05-29T04:29:12.164Z,25.65
2023-05-29T04:30:11.044Z,25.62
2023-05-29T04:31:11.019Z,25.62
2023-05-29T04:32:10.984Z,25.62
2023-05-29T04:33:11.033Z,25.62
2023-05-29T04:34:10.972Z,25.58
2023-05-29T04:35:10.958Z,25.62
2023-05-29T04:36:10.953Z,25.64
2023-05-29T04:37:10.957Z,25.62
2023-05-29T04:38:10.957Z,25.65
2023-05-29T04:39:10.961Z,25.64
2023-05-29T04:40:10.972Z,25.64
2023-05-29T04:41:10.949Z,25.64
2023-05-29T04:42:10.947Z,25.62
2023-05-29T04:43:10.949Z,25.64
2023-05-29T04:44:10.942Z,25.62
2023-05-29T04:45:10.932Z,25.64
2023-05-29T04:46:10.947Z,25.62
2023-05-29T04:47:10.910Z,25.64
2023-05-29T04:48:10.960Z,25.62
2023-05-29T04:49:10.893Z,25.64
2023-05-29T04:50:10.892Z,25.62
2023-05-29T04:51:10.911Z,25.62
2023-05-29T04:52:10.898Z,25.62
2023-05-29T04:53:10.998Z,25.61
2023-05-29T04:54:10.888Z,25.65
2023-05-29T04:55:10.879Z,25.62
2023-05-29T04:56:10.893Z,25.62
2023-05-29T04:57:10.870Z,25.62
2023-05-29T04:58:10.870Z,25.62
2023-05-29T04:59:10.865Z,25.62
2023-05-29T05:00:10.880Z,25.64
2023-05-29T05:01:10.844Z,25.64
2023-05-29T05:02:10.874Z,25.64
2023-05-29T05:03:10.887Z,25.61
2023-05-29T05:04:10.906Z,25.65
2023-05-29T05:05:10.800Z,25.64
2023-05-29T05:06:10.788Z,25.62
2023-05-29T05:07:10.778Z,25.64
2023-05-29T05:08:10.779Z,25.64
2023-05-29T05:09:10.771Z,25.64
2023-05-29T05:10:10.756Z,25.62
2023-05-29T05:11:10.749Z,25.64
2023-05-29T05:12:10.747Z,25.62
2023-05-29T05:13:10.820Z,25.64
2023-05-29T05:14:10.730Z,25.64
2023-05-29T05:15:10.731Z,25.65
2023-05-29T05:16:10.748Z,25.65
2023-05-29T05:17:10.726Z,25.65
2023-05-29T05:18:10.730Z,25.65
2023-05-29T05:19:10.729Z,25.66
2023-05-29T05:20:10.753Z,25.64
2023-05-29T05:21:10.749Z,25.66
2023-05-29T05:22:10.732Z,25.64
2023-05-29T05:23:10.726Z,25.64
2023-05-29T05:24:10.722Z,25.64
2023-05-29T05:25:10.717Z,25.65
2023-05-29T05:26:10.696Z,25.66
2023-05-29T05:27:10.696Z,25.62
2023-05-29T05:28:10.685Z,25.65
2023-05-29T05:29:10.680Z,25.66
2023-05-29T05:30:10.680Z,25.65
2023-05-29T05:31:10.682Z,25.66
2023-05-29T05:32:10.764Z,25.68
2023-05-29T05:33:10.710Z,25.65
2023-05-29T05:34:10.702Z,25.66
2023-05-29T05:35:10.671Z,25.66
2023-05-29T05:36:10.673Z,25.69
2023-05-29T05:37:10.671Z,25.66
2023-05-29T05:38:10.683Z,25.65
2023-05-29T05:39:10.666Z,25.68
2023-05-29T05:40:10.672Z,25.68
2023-05-29T05:41:10.653Z,25.68
2023-05-29T05:42:10.660Z,25.66
2023-05-29T05:43:10.666Z,25.71
2023-05-29T05:44:10.663Z,25.69
2023-05-29T05:45:10.654Z,25.68
2023-05-29T05:46:10.701Z,25.69
2023-05-29T05:47:10.645Z,25.66
2023-05-29T05:48:10.676Z,25.69
2023-05-29T05:49:10.634Z,25.69
2023-05-29T05:50:10.634Z,25.71
2023-05-29T05:51:10.625Z,25.68
2023-05-29T05:52:10.623Z,25.69
2023-05-29T05:53:10.609Z,25.69
2023-05-29T05:54:10.601Z,25.69
2023-05-29T05:55:10.604Z,25.69
2023-05-29T05:56:10.596Z,25.69
2023-05-29T05:57:10.598Z,25.69
2023-05-29T05:58:10.585Z,25.71
2023-05-29T05:59:10.575Z,25.71
2023-05-29T06:00:10.582Z,25.69
2023-05-29T06:01:10.567Z,25.71
2023-05-29T06:02:10.620Z,25.72
2023-05-29T06:03:10.667Z,25.69
2023-05-29T06:04:10.609Z,25.72
2023-05-29T06:05:10.527Z,25.69
2023-05-29T06:06:10.498Z,25.72
2023-05-29T06:07:10.500Z,25.72
2023-05-29T06:08:10.510Z,25.71
2023-05-29T06:09:10.489Z,25.72
2023-05-29T06:10:10.483Z,25.73
2023-05-29T06:11:11.046Z,25.71
2023-05-29T06:12:10.482Z,25.72
2023-05-29T06:13:10.492Z,25.75
2023-05-29T06:14:10.485Z,25.72
2023-05-29T06:15:10.490Z,25.73
2023-05-29T06:16:10.507Z,25.73
2023-05-29T06:17:10.552Z,25.72
2023-05-29T06:18:10.502Z,25.75
2023-05-29T06:19:10.458Z,25.76
2023-05-29T06:20:10.469Z,25.72
2023-05-29T06:21:10.445Z,25.75
2023-05-29T06:22:10.428Z,25.75
2023-05-29T06:23:10.424Z,25.73
2023-05-29T06:24:10.406Z,25.73
2023-05-29T06:25:10.462Z,25.75
2023-05-29T06:26:10.383Z,25.75
2023-05-29T06:27:10.451Z,25.73
2023-05-29T06:28:10.363Z,25.75
2023-05-29T06:29:10.345Z,25.76
2023-05-29T06:30:10.336Z,25.78
2023-05-29T06:31:10.386Z,25.76
2023-05-29T06:32:10.311Z,25.78
2023-05-29T06:33:10.367Z,25.78
2023-05-29T06:34:10.293Z,25.78
2023-05-29T06:35:10.301Z,25.75
2023-05-29T06:36:10.292Z,25.76
2023-05-29T06:37:10.270Z,25.76
2023-05-29T06:38:10.257Z,25.79
2023-05-29T06:39:10.247Z,25.79
2023-05-29T06:40:10.255Z,25.79
2023-05-29T06:41:10.237Z,25.79
2023-05-29T06:42:10.240Z,25.79
2023-05-29T06:43:10.293Z,25.79
2023-05-29T06:44:10.221Z,25.78
2023-05-29T06:45:10.223Z,25.78
2023-05-29T06:46:10.210Z,25.78
2023-05-29T06:47:10.252Z,25.78
2023-05-29T06:48:10.242Z,25.78
2023-05-29T06:49:10.192Z,25.80
2023-05-29T06:50:10.193Z,25.79
2023-05-29T06:51:10.191Z,25.80
2023-05-29T06:52:10.172Z,25.82
2023-05-29T06:53:10.198Z,25.79
2023-05-29T06:54:10.167Z,25.80
2023-05-29T06:55:10.152Z,25.79
2023-05-29T06:56:10.153Z,25.80
2023-05-29T06:57:11.441Z,25.80
2023-05-29T06:58:10.138Z,25.79
2023-05-29T06:59:10.136Z,25.80
2023-05-29T07:00:10.132Z,25.80
2023-05-29T07:01:10.166Z,25.80
2023-05-29T07:02:10.127Z,25.82
2023-05-29T07:03:10.234Z,25.83
2023-05-29T07:04:10.151Z,25.82
2023-05-29T07:05:10.118Z,25.82
2023-05-29T07:06:10.113Z,25.83
2023-05-29T07:07:10.113Z,25.85
2023-05-29T07:08:10.146Z,25.82
2023-05-29T07:09:10.110Z,25.83
2023-05-29T07:10:10.117Z,25.82
2023-05-29T07:11:10.119Z,25.83
2023-05-29T07:12:10.113Z,25.82
2023-05-29T07:13:10.115Z,25.83
2023-05-29T07:14:10.130Z,25.82
2023-05-29T07:15:10.117Z,25.83
2023-05-29T07:16:20.855Z,25.85
2023-05-29T07:17:11.156Z,25.83
2023-05-29T07:18:10.189Z,25.83
2023-05-29T07:19:19.723Z,25.82
2023-05-29T07:20:11.220Z,25.82
2023-05-29T07:21:10.083Z,25.83
2023-05-29T07:22:10.088Z,25.82
2023-05-29T07:23:10.089Z,25.83
2023-05-29T07:24:10.558Z,25.86
2023-05-29T07:25:10.076Z,25.83
2023-05-29T07:26:10.072Z,25.86
2023-05-29T07:27:10.065Z,25.83
2023-05-29T07:28:21.666Z,25.86
2023-05-29T07:29:11.044Z,25.83
2023-05-29T07:30:10.046Z,25.85
2023-05-29T07:31:10.036Z,25.88
2023-05-29T07:32:10.141Z,25.85
2023-05-29T07:33:10.088Z,25.86
2023-05-29T07:34:10.018Z,25.88
2023-05-29T07:35:10.031Z,25.88
2023-05-29T07:36:10.014Z,25.88
2023-05-29T07:37:10.011Z,25.85
2023-05-29T07:38:10.013Z,25.89
2023-05-29T07:39:09.997Z,25.88
2023-05-29T07:40:10.004Z,25.90
2023-05-29T07:41:09.991Z,25.92
2023-05-29T07:42:10.555Z,25.89
2023-05-29T07:43:09.981Z,25.89
2023-05-29T07:44:09.973Z,25.88
2023-05-29T07:45:09.967Z,25.90
2023-05-29T07:46:10.017Z,25.89
2023-05-29T07:47:09.973Z,25.90
2023-05-29T07:48:10.045Z,25.89
2023-05-29T07:49:09.965Z,25.89
2023-05-29T07:50:09.965Z,25.90
2023-05-29T07:51:09.957Z,25.90
2023-05-29T07:52:09.966Z,25.90
2023-05-29T07:53:09.952Z,25.90
2023-05-29T07:54:09.925Z,25.90
2023-05-29T07:55:09.918Z,25.90
2023-05-29T07:56:09.915Z,25.90
2023-05-29T07:57:09.910Z,25.89
2023-05-29T07:58:10.900Z,25.89
2023-05-29T07:59:09.907Z,25.90
2023-05-29T08:00:09.883Z,25.92
2023-05-29T08:01:09.870Z,25.89
2023-05-29T08:02:09.873Z,25.92
2023-05-29T08:03:09.912Z,25.92
2023-05-29T08:04:09.927Z,25.92
2023-05-29T08:05:09.900Z,25.90
2023-05-29T08:06:09.843Z,25.92
2023-05-29T08:07:09.861Z,25.92
2023-05-29T08:08:09.817Z,25.92
2023-05-29T08:09:09.823Z,25.93
2023-05-29T08:10:09.813Z,25.92
2023-05-29T08:11:09.801Z,25.90
2023-05-29T08:12:09.785Z,25.92
2023-05-29T08:13:09.794Z,25.93
2023-05-29T08:14:09.781Z,25.95
2023-05-29T08:15:09.783Z,25.93
2023-05-29T08:16:09.811Z,25.93
2023-05-29T08:17:09.762Z,25.93
2023-05-29T08:18:09.890Z,25.95
2023-05-29T08:19:09.751Z,25.95
2023-05-29T08:20:09.781Z,25.93
2023-05-29T08:21:09.749Z,25.93
2023-05-29T08:22:09.739Z,25.93
2023-05-29T08:23:09.725Z,25.95
2023-05-29T08:24:09.714Z,25.93
2023-05-29T08:25:09.724Z,25.92
2023-05-29T08:26:09.705Z,25.93
2023-05-29T08:27:09.694Z,25.96
2023-05-29T08:28:09.669Z,25.95
2023-05-29T08:29:09.663Z,25.95
2023-05-29T08:30:09.657Z,25.96
2023-05-29T08:31:09.714Z,25.95
2023-05-29T08:32:09.645Z,25.96
2023-05-29T08:33:09.735Z,25.96
2023-05-29T08:34:09.643Z,25.97
2023-05-29T08:35:09.640Z,25.96
2023-05-29T08:36:09.629Z,25.95
2023-05-29T08:37:09.632Z,25.97
2023-05-29T08:38:09.613Z,25.96
2023-05-29T08:39:09.590Z,25.95
2023-05-29T08:40:09.590Z,25.96
2023-05-29T08:41:09.637Z,25.93
2023-05-29T08:42:09.573Z,25.95
2023-05-29T08:43:10.089Z,25.97
2023-05-29T08:44:09.574Z,25.97
2023-05-29T08:45:09.559Z,25.96
2023-05-29T08:46:09.574Z,25.97
2023-05-29T08:47:09.543Z,25.97
2023-05-29T08:48:09.568Z,25.99
2023-05-29T08:49:09.536Z,25.97
2023-05-29T08:50:09.544Z,25.97
2023-05-29T08:51:09.546Z,25.96
2023-05-29T08:52:09.538Z,25.96
2023-05-29T08:53:09.539Z,25.97
2023-05-29T08:54:09.537Z,25.96
2023-05-29T08:55:09.535Z,25.99
2023-05-29T08:57:09.591Z,25.97
2023-05-29T08:58:09.587Z,25.99
2023-05-29T08:59:09.615Z,25.97
2023-05-29T09:00:09.544Z,26.00
2023-05-29T09:01:09.574Z,26.00
2023-05-29T09:02:09.533Z,25.99
2023-05-29T09:03:09.702Z,25.97
2023-05-29T09:04:09.542Z,25.99
2023-05-29T09:05:09.514Z,26.00
2023-05-29T09:06:09.514Z,25.99
2023-05-29T09:07:09.537Z,26.00
2023-05-29T09:08:09.549Z,25.99
2023-05-29T09:09:09.524Z,25.99
2023-05-29T09:10:09.528Z,25.99
2023-05-29T09:11:09.529Z,26.00
2023-05-29T09:12:09.528Z,25.99
2023-05-29T09:13:09.543Z,26.01
2023-05-29T09:14:09.696Z,25.99
2023-05-29T09:15:09.729Z,26.01
2023-05-29T09:16:09.541Z,26.03
2023-05-29T09:17:09.522Z,25.99
2023-05-29T09:18:09.566Z,26.00
2023-05-29T09:19:10.939Z,26.00
2023-05-29T09:20:09.543Z,26.01
2023-05-29T09:21:09.531Z,25.99
2023-05-29T09:22:09.524Z,26.00
2023-05-29T09:23:09.517Z,26.03
2023-05-29T09:24:09.513Z,26.01
2023-05-29T09:25:09.517Z,26.00
2023-05-29T09:26:09.512Z,26.03
2023-05-29T09:27:09.525Z,26.01
2023-05-29T09:28:09.573Z,26.01
2023-05-29T09:29:09.516Z,26.03
2023-05-29T09:30:09.522Z,26.04
2023-05-29T09:31:09.586Z,26.01
2023-05-29T09:32:09.537Z,26.01
2023-05-29T09:33:09.588Z,26.01
2023-05-29T09:34:09.532Z,26.03
2023-05-29T09:35:09.537Z,26.01
2023-05-29T09:36:09.512Z,26.00
2023-05-29T09:37:09.523Z,26.04
2023-05-29T09:38:09.601Z,26.03
2023-05-29T09:39:17.087Z,26.00
2023-05-29T09:40:10.506Z,26.03
2023-05-29T09:41:09.492Z,26.03
2023-05-29T09:42:09.489Z,26.03
2023-05-29T09:43:09.476Z,26.03
2023-05-29T09:44:09.476Z,26.03
2023-05-29T09:45:09.465Z,26.04
2023-05-29T09:46:09.474Z,26.01
2023-05-29T09:47:09.453Z,26.03
2023-05-29T09:48:09.507Z,26.04
2023-05-29T09:49:09.515Z,26.04
2023-05-29T09:50:09.416Z,26.04
2023-05-29T09:51:09.415Z,26.06
2023-05-29T09:52:09.406Z,26.03
2023-05-29T09:53:09.421Z,26.04
2023-05-29T09:54:09.385Z,26.03
2023-05-29T09:55:09.374Z,26.04
2023-05-29T09:56:09.367Z,26.04
2023-05-29T09:57:09.357Z,26.06
2023-05-29T09:58:09.344Z,26.04
2023-05-29T09:59:09.336Z,26.06
2023-05-29T10:00:09.328Z,26.04
2023-05-29T10:01:09.354Z,26.04
2023-05-29T10:02:09.336Z,26.03
2023-05-29T10:03:09.351Z,26.04
2023-05-29T10:04:09.279Z,26.06
2023-05-29T10:05:09.278Z,26.06
2023-05-29T10:06:09.525Z,26.06
2023-05-29T10:07:09.263Z,26.06
2023-05-29T10:08:09.257Z,26.04
2023-05-29T10:09:09.241Z,26.06
2023-05-29T10:10:09.231Z,26.06
2023-05-29T10:11:09.205Z,26.04
2023-05-29T10:12:09.183Z,26.06
2023-05-29T10:13:09.171Z,26.07
2023-05-29T10:14:09.150Z,26.04
2023-05-29T10:15:09.140Z,26.06
2023-05-29T10:16:09.161Z,26.06
2023-05-29T10:17:09.153Z,26.04
2023-05-29T10:18:09.193Z,26.07
2023-05-29T10:19:09.119Z,26.04
2023-05-29T10:20:09.128Z,26.04
2023-05-29T10:21:09.092Z,26.04
2023-05-29T10:22:09.080Z,26.04
2023-05-29T10:23:09.067Z,26.06
2023-05-29T10:24:09.073Z,26.07
2023-05-29T10:25:09.066Z,26.07
2023-05-29T10:26:09.065Z,26.04
2023-05-29T10:27:09.075Z,26.06
2023-05-29T10:28:09.070Z,26.04
2023-05-29T10:29:09.079Z,26.04
2023-05-29T10:30:09.064Z,26.06
2023-05-29T10:31:09.060Z,26.06
2023-05-29T10:32:09.114Z,26.07
2023-05-29T10:33:09.110Z,26.04
2023-05-29T10:34:09.047Z,26.04
2023-05-29T10:35:09.041Z,26.07
2023-05-29T10:36:09.041Z,26.04
2023-05-29T10:37:09.036Z,26.07
2023-05-29T10:38:09.026Z,26.06
2023-05-29T10:39:09.025Z,26.06
2023-05-29T10:40:09.063Z,26.06
2023-05-29T10:41:09.060Z,26.07
2023-05-29T10:42:09.630Z,26.07
2023-05-29T10:43:09.027Z,26.06
2023-05-29T10:44:09.010Z,26.04
2023-05-29T10:45:09.005Z,26.07
2023-05-29T10:46:09.071Z,26.08
2023-05-29T10:47:09.022Z,26.10
2023-05-29T10:48:09.033Z,26.07
2023-05-29T10:49:08.976Z,26.07
2023-05-29T10:50:08.979Z,26.07
2023-05-29T10:51:09.029Z,26.06
2023-05-29T10:52:08.970Z,26.07
2023-05-29T10:53:08.951Z,26.08
2023-05-29T10:54:08.937Z,26.07
2023-05-29T10:55:08.927Z,26.07
2023-05-29T10:56:08.938Z,26.08
2023-05-29T10:57:08.928Z,26.08
2023-05-29T10:58:08.915Z,26.07
2023-05-29T10:59:08.912Z,26.07
2023-05-29T11:00:08.910Z,26.08
2023-05-29T11:01:08.920Z,26.07
2023-05-29T11:02:08.887Z,26.08
2023-05-29T11:03:08.919Z,26.07
2023-05-29T11:04:08.957Z,26.06
2023-05-29T11:05:08.857Z,26.07
2023-05-29T11:06:08.870Z,26.06
2023-05-29T11:07:08.849Z,26.06
2023-05-29T11:08:08.868Z,26.08
2023-05-29T11:09:08.902Z,26.06
2023-05-29T11:10:08.908Z,26.08
2023-05-29T11:11:08.905Z,26.08
2023-05-29T11:12:08.893Z,26.06
2023-05-29T11:13:08.907Z,26.07
2023-05-29T11:14:08.922Z,26.06
2023-05-29T11:15:08.865Z,26.08
2023-05-29T11:16:08.864Z,26.10
2023-05-29T11:17:08.864Z,26.06
2023-05-29T11:18:09.067Z,26.07
2023-05-29T11:19:08.998Z,26.10
2023-05-29T11:20:09.048Z,26.07
2023-05-29T11:21:08.917Z,26.08
2023-05-29T11:22:08.944Z,26.08
2023-05-29T11:23:08.998Z,26.10
2023-05-29T11:24:08.943Z,26.07
2023-05-29T11:25:08.929Z,26.07
2023-05-29T11:26:08.916Z,26.06
2023-05-29T11:27:08.906Z,26.06
2023-05-29T11:28:08.922Z,26.12
2023-05-29T11:29:08.919Z,26.07
2023-05-29T11:30:08.910Z,26.10
2023-05-29T11:31:08.942Z,26.10
2023-05-29T11:32:08.959Z,26.08
2023-05-29T11:33:08.967Z,26.10
2023-05-29T11:34:08.935Z,26.07
2023-05-29T11:35:08.949Z,26.08
2023-05-29T11:36:08.915Z,26.08
2023-05-29T11:37:08.920Z,26.08
2023-05-29T11:38:08.892Z,26.10
2023-05-29T11:39:08.885Z,26.10
2023-05-29T11:40:08.886Z,26.08
2023-05-29T11:41:08.877Z,26.10
2023-05-29T11:42:08.881Z,26.08
2023-05-29T11:43:08.876Z,26.08
2023-05-29T11:44:08.893Z,26.06
2023-05-29T11:45:08.867Z,26.08
2023-05-29T11:46:08.875Z,26.12
2023-05-29T11:47:08.942Z,26.07
2023-05-29T11:48:08.882Z,26.07
2023-05-29T11:49:08.886Z,26.08
2023-05-29T11:50:08.905Z,26.08
2023-05-29T11:51:08.909Z,26.10
2023-05-29T11:52:15.578Z,26.08
2023-05-29T11:53:09.902Z,26.10
2023-05-29T11:54:08.879Z,26.08
2023-05-29T11:55:08.884Z,26.08
2023-05-29T11:56:08.868Z,26.10
2023-05-29T11:57:08.844Z,26.07
2023-05-29T11:58:08.845Z,26.10
2023-05-29T11:59:08.859Z,26.06
2023-05-29T12:00:08.829Z,26.08
2023-05-29T12:01:08.877Z,26.08
2023-05-29T12:02:08.810Z,26.07
2023-05-29T12:03:08.831Z,26.10
2023-05-29T12:04:08.789Z,26.07
2023-05-29T12:05:08.866Z,26.07
2023-05-29T12:06:08.842Z,26.10
2023-05-29T12:07:08.737Z,26.08
2023-05-29T12:08:08.728Z,26.08
2023-05-29T12:09:08.707Z,26.08
2023-05-29T12:10:08.701Z,26.07
2023-05-29T12:11:08.678Z,26.07
2023-05-29T12:12:09.657Z,26.08
2023-05-29T12:13:08.681Z,26.08
2023-05-29T12:14:08.675Z,26.08
2023-05-29T12:15:08.642Z,26.07
2023-05-29T12:16:08.636Z,26.07
2023-05-29T12:17:08.686Z,26.08
2023-05-29T12:18:08.621Z,26.08
2023-05-29T12:19:08.608Z,26.08
2023-05-29T12:20:08.629Z,26.10
2023-05-29T12:21:08.586Z,26.08
2023-05-29T12:22:08.565Z,26.07
2023-05-29T12:23:08.553Z,26.10
2023-05-29T12:24:14.479Z,26.08
2023-05-29T12:25:09.562Z,26.07
2023-05-29T12:26:08.533Z,26.08
2023-05-29T12:27:08.578Z,26.07
2023-05-29T12:28:08.518Z,26.10
2023-05-29T12:29:08.513Z,26.08
2023-05-29T12:30:09.735Z,26.07
2023-05-29T12:31:08.684Z,26.08
2023-05-29T12:32:08.761Z,26.10
2023-05-29T12:33:08.786Z,26.08
2023-05-29T12:34:08.701Z,26.10
2023-05-29T12:35:08.661Z,26.10
2023-05-29T12:36:08.688Z,26.08
2023-05-29T12:37:08.648Z,26.08
2023-05-29T12:38:08.638Z,26.08
2023-05-29T12:39:08.632Z,26.08
2023-05-29T12:40:08.629Z,26.08
2023-05-29T12:41:08.698Z,26.08
2023-05-29T12:42:08.650Z,26.07
2023-05-29T12:43:08.606Z,26.08
2023-05-29T12:44:08.608Z,26.08
2023-05-29T12:45:08.600Z,26.08
2023-05-29T12:46:08.633Z,26.08
2023-05-29T12:47:08.619Z,26.12
2023-05-29T12:48:08.744Z,26.10
2023-05-29T12:49:08.601Z,26.08
2023-05-29T12:50:08.600Z,26.08
2023-05-29T12:51:08.590Z,26.08
2023-05-29T12:52:08.595Z,26.10
2023-05-29T12:53:08.594Z,26.10